createdAt,value
2023-04-17T00:00:57.053Z,24.67
2023-04-17T00:03:26.411Z,23.88
2023-04-17T00:05:57.790Z,24.15
2023-04-17T00:08:27.218Z,23.27
2023-04-17T00:11:06.527Z,24.08
2023-04-17T00:13:36.863Z,24.35
2023-04-17T00:16:06.259Z,23.17
2023-04-17T00:18:35.536Z,23.45
2023-04-17T00:21:04.848Z,24.23
2023-04-17T00:23:34.253Z,25.45
2023-04-17T00:26:03.551Z,24.92
2023-04-17T00:28:35.158Z,25.02
2023-04-17T00:31:05.559Z,26.15
2023-04-17T00:33:34.937Z,23.88
2023-04-17T00:36:04.147Z,25.60
2023-04-17T00:38:33.363Z,26.50
2023-04-17T00:41:02.708Z,24.13
2023-04-17T00:43:31.980Z,24.70
2023-04-17T00:46:01.543Z,24.52
2023-04-17T00:48:31.231Z,24.80
2023-04-17T00:51:04.310Z,25.45
2023-04-17T00:53:34.787Z,25.65
2023-04-17T00:56:07.447Z,25.35
2023-04-17T00:58:39.350Z,25.67
2023-04-17T01:01:09.090Z,27.20
2023-04-17T01:03:38.564Z,27.10
2023-04-17T01:06:08.356Z,26.10
2023-04-17T01:08:47.307Z,25.80
2023-04-17T01:11:16.634Z,25.73
2023-04-17T01:13:53.271Z,26.38
2023-04-17T01:16:22.679Z,24.95
2023-04-17T01:18:52.242Z,31.10
2023-04-17T01:21:22.344Z,25.73
2023-04-17T01:23:53.882Z,25.20
2023-04-17T01:26:26.497Z,25.52
2023-04-17T01:29:01.068Z,24.83
2023-04-17T01:31:31.055Z,24.65
2023-04-17T01:34:02.174Z,24.30
2023-04-17T01:36:31.538Z,23.98
2023-04-17T01:39:00.799Z,22.35
2023-04-17T01:41:30.057Z,24.45
2023-04-17T01:43:59.370Z,25.20
2023-04-17T01:46:28.674Z,24.95
2023-04-17T01:49:01.279Z,24.67
2023-04-17T01:51:30.664Z,24.85
2023-04-17T01:54:00.662Z,26.00
2023-04-17T01:56:38.389Z,24.92
2023-04-17T01:59:07.793Z,24.65
2023-04-17T02:01:37.928Z,23.98
2023-04-17T02:04:07.542Z,24.52
2023-04-17T02:06:37.032Z,25.48
2023-04-17T02:09:07.116Z,26.10
2023-04-17T02:11:36.741Z,24.92
2023-04-17T02:14:06.030Z,25.88
2023-04-17T02:16:35.457Z,28.25
2023-04-17T02:19:05.056Z,29.02
2023-04-17T02:21:34.281Z,27.05
2023-04-17T02:24:03.498Z,27.05
2023-04-17T02:26:32.772Z,26.60
2023-04-17T02:29:02.075Z,24.05
2023-04-17T02:31:32.588Z,25.88
2023-04-17T02:34:01.921Z,23.80
2023-04-17T02:36:31.673Z,24.15
2023-04-17T02:39:00.965Z,24.85
2023-04-17T02:41:30.278Z,24.63
2023-04-17T02:44:02.907Z,25.60
2023-04-17T02:46:32.156Z,25.38
2023-04-17T02:49:01.544Z,23.83
2023-04-17T02:51:30.838Z,25.80
2023-04-17T02:54:00.126Z,25.55
2023-04-17T02:56:29.416Z,25.40
2023-04-17T02:58:58.933Z,24.38
2023-04-17T03:01:28.889Z,23.50
2023-04-17T03:03:59.761Z,25.05
2023-04-17T03:06:32.074Z,24.95
2023-04-17T03:09:01.510Z,26.52
2023-04-17T03:11:33.375Z,25.45
2023-04-17T03:14:02.673Z,24.65
2023-04-17T03:16:32.160Z,25.15
2023-04-17T03:19:03.975Z,23.83
2023-04-17T03:21:33.455Z,24.80
2023-04-17T03:24:02.866Z,25.55
2023-04-17T03:26:32.170Z,25.45
2023-04-17T03:29:01.532Z,25.42
2023-04-17T03:31:30.858Z,24.65
2023-04-17T03:34:00.211Z,25.20
2023-04-17T03:36:29.618Z,25.10
2023-04-17T03:38:58.925Z,25.95
2023-04-17T03:41:28.160Z,24.92
2023-04-17T03:43:57.644Z,25.25
2023-04-17T03:46:27.464Z,24.27
2023-04-17T03:48:56.990Z,25.65
2023-04-17T03:51:28.439Z,26.23
2023-04-17T03:53:57.788Z,25.45
2023-04-17T03:56:27.208Z,24.73
2023-04-17T03:58:56.731Z,26.05
2023-04-17T04:01:29.377Z,25.85
2023-04-17T04:03:58.843Z,25.90
2023-04-17T04:06:33.778Z,25.75
2023-04-17T04:09:03.044Z,24.90
2023-04-17T04:11:32.432Z,24.70
2023-04-17T04:14:01.891Z,25.38
2023-04-17T04:16:31.385Z,23.55
2023-04-17T04:19:00.676Z,25.38
2023-04-17T04:21:29.977Z,24.00
2023-04-17T04:24:04.428Z,24.88
2023-04-17T04:26:34.356Z,24.73
2023-04-17T04:29:04.700Z,24.85
2023-04-17T04:31:34.480Z,23.75
2023-04-17T04:34:04.143Z,23.95
2023-04-17T04:36:37.181Z,23.50
2023-04-17T04:39:06.847Z,24.67
2023-04-17T04:41:36.529Z,23.50
2023-04-17T04:44:05.918Z,23.25
2023-04-17T04:46:35.242Z,22.52
2023-04-17T04:49:04.588Z,23.50
2023-04-17T04:51:34.858Z,23.00
2023-04-17T04:54:04.727Z,22.48
2023-04-17T04:56:34.367Z,22.88
2023-04-17T04:59:06.848Z,23.23
2023-04-17T05:01:36.953Z,22.10
2023-04-17T05:04:06.877Z,22.08
2023-04-17T05:06:36.465Z,22.13
2023-04-17T05:09:06.011Z,21.45
2023-04-17T05:11:35.932Z,21.83
2023-04-17T05:14:07.843Z,21.55
2023-04-17T05:16:37.944Z,21.48
2023-04-17T05:19:07.291Z,21.67
2023-04-17T05:21:39.307Z,21.08
2023-04-17T05:24:13.799Z,22.00
2023-04-17T05:26:43.257Z,21.95
2023-04-17T05:29:13.557Z,20.48
2023-04-17T05:31:43.150Z,21.23
2023-04-17T05:34:12.536Z,21.05
2023-04-17T05:36:42.037Z,21.95
2023-04-17T05:39:11.667Z,21.40
2023-04-17T05:41:41.155Z,21.60
2023-04-17T05:44:10.512Z,22.17
2023-04-17T05:46:39.807Z,22.52
2023-04-17T05:49:09.250Z,22.08
2023-04-17T05:51:39.919Z,21.77
2023-04-17T05:54:09.284Z,22.92
2023-04-17T05:56:38.588Z,21.17
2023-04-17T05:59:07.977Z,22.02
2023-04-17T06:01:37.784Z,22.77
2023-04-17T06:04:07.777Z,22.48
2023-04-17T06:06:39.868Z,21.80
2023-04-17T06:09:10.720Z,21.48
2023-04-17T06:11:40.320Z,21.65
2023-04-17T06:14:09.594Z,22.65
2023-04-17T06:16:39.273Z,21.63
2023-04-17T06:19:08.645Z,22.02
2023-04-17T06:21:37.965Z,21.58
2023-04-17T06:24:07.953Z,21.80
2023-04-17T06:26:37.204Z,22.08
2023-04-17T06:29:07.137Z,22.48
2023-04-17T06:31:37.048Z,22.95
2023-04-17T06:34:06.453Z,22.25
2023-04-17T06:36:35.772Z,22.55
2023-04-17T06:39:05.059Z,23.10
2023-04-17T06:41:34.608Z,22.55
2023-04-17T06:44:03.964Z,22.95
2023-04-17T06:46:33.385Z,22.30
2023-04-17T06:49:03.687Z,23.02
2023-04-17T06:51:56.281Z,22.45
2023-04-17T06:54:25.808Z,22.35
2023-04-17T06:56:57.644Z,21.98
2023-04-17T06:59:27.194Z,21.27
2023-04-17T07:01:56.696Z,22.23
2023-04-17T07:04:26.105Z,22.73
2023-04-17T07:06:55.526Z,21.92
2023-04-17T07:09:26.150Z,22.15
2023-04-17T07:12:01.865Z,22.58
2023-04-17T07:14:31.737Z,22.42
2023-04-17T07:17:01.613Z,22.48
2023-04-17T07:19:31.025Z,22.38
2023-04-17T07:22:00.449Z,21.15
2023-04-17T07:24:32.270Z,22.60
2023-04-17T07:27:02.832Z,22.10
2023-04-17T07:29:35.274Z,23.00
2023-04-17T07:32:06.773Z,22.92
2023-04-17T07:34:35.943Z,22.60
2023-04-17T07:37:05.233Z,22.40
2023-04-17T07:39:34.584Z,22.50
2023-04-17T07:42:07.557Z,22.85
2023-04-17T07:44:37.335Z,21.60
2023-04-17T07:47:07.110Z,22.10
2023-04-17T07:49:36.503Z,22.13
2023-04-17T07:52:05.868Z,21.92
2023-04-17T07:54:35.244Z,21.80
2023-04-17T07:57:04.620Z,22.38
2023-04-17T07:59:33.925Z,22.65
2023-04-17T08:02:03.256Z,23.10
2023-04-17T08:04:34.133Z,21.60
2023-04-17T08:07:06.411Z,23.05
2023-04-17T08:09:35.721Z,21.73
2023-04-17T08:12:05.405Z,22.85
2023-04-17T08:14:38.014Z,22.67
2023-04-17T08:17:08.406Z,22.58
2023-04-17T08:19:37.731Z,21.77
2023-04-17T08:22:08.366Z,21.85
2023-04-17T08:24:38.115Z,21.75
2023-04-17T08:27:08.828Z,22.60
2023-04-17T08:29:38.724Z,22.65
2023-04-17T08:32:14.734Z,22.23
2023-04-17T08:34:47.225Z,22.57
2023-04-17T08:37:16.784Z,21.60
2023-04-17T08:39:45.974Z,21.33
2023-04-17T08:42:18.843Z,22.95
2023-04-17T08:44:48.507Z,21.83
2023-04-17T08:47:20.038Z,19.85
2023-04-17T08:49:51.469Z,20.02
2023-04-17T08:52:20.820Z,19.70
2023-04-17T08:54:51.265Z,20.77
2023-04-17T08:57:20.908Z,19.80
2023-04-17T08:59:50.181Z,20.45
2023-04-17T09:02:19.561Z,19.38
2023-04-17T09:04:49.485Z,19.33
2023-04-17T09:07:19.469Z,20.48
2023-04-17T09:09:54.164Z,20.45
2023-04-17T09:12:28.284Z,20.27
2023-04-17T09:15:00.356Z,19.83
2023-04-17T09:17:38.580Z,19.75
2023-04-17T09:20:15.638Z,20.85
2023-04-17T09:22:44.988Z,23.13
2023-04-17T09:25:24.158Z,21.17
2023-04-17T09:27:55.575Z,21.45
2023-04-17T09:30:28.037Z,21.08
2023-04-17T09:33:11.354Z,22.05
2023-04-17T09:35:41.042Z,22.55
2023-04-17T09:38:10.340Z,23.27
2023-04-17T09:40:46.078Z,22.73
2023-04-17T09:43:15.389Z,21.27
2023-04-17T09:45:45.930Z,21.45
2023-04-17T09:48:16.570Z,22.05
2023-04-17T09:50:46.494Z,22.83
2023-04-17T09:53:18.005Z,22.48
2023-04-17T09:55:47.641Z,22.98
2023-04-17T09:58:17.462Z,22.15
2023-04-17T10:00:47.081Z,21.40
2023-04-17T10:03:18.899Z,21.77
2023-04-17T10:05:48.963Z,23.42
2023-04-17T10:08:18.628Z,22.23
2023-04-17T10:10:49.663Z,22.20
2023-04-17T10:13:22.158Z,23.95
2023-04-17T10:15:51.805Z,22.90
2023-04-17T10:18:26.173Z,23.08
2023-04-17T10:20:56.245Z,23.13
2023-04-17T10:23:34.396Z,23.52
2023-04-17T10:26:30.592Z,22.73
2023-04-17T10:29:00.092Z,22.67
2023-04-17T10:32:20.297Z,22.60
2023-04-17T10:34:49.737Z,22.27
2023-04-17T10:37:20.018Z,24.23
2023-04-17T10:39:57.720Z,24.52
2023-04-17T10:45:02.442Z,25.38
2023-04-17T10:47:36.666Z,24.38
2023-04-17T10:50:11.045Z,23.65
2023-04-17T10:52:43.013Z,23.60
2023-04-17T10:55:32.500Z,22.52
2023-04-17T10:58:05.795Z,25.23
2023-04-17T11:00:50.351Z,24.80
2023-04-17T11:03:23.742Z,25.02
2023-04-17T11:05:53.626Z,24.63
2023-04-17T11:08:24.539Z,24.95
2023-04-17T11:11:00.168Z,24.60
2023-04-17T11:13:34.818Z,24.55
2023-04-17T11:16:10.275Z,23.77
2023-04-17T11:18:40.272Z,24.20
2023-04-17T11:21:16.468Z,25.42
2023-04-17T11:23:53.398Z,25.83
2023-04-17T11:26:24.566Z,27.03
2023-04-17T11:28:53.688Z,25.38
2023-04-17T11:31:23.640Z,25.42
2023-04-17T11:33:53.324Z,24.35
2023-04-17T11:36:24.238Z,26.10
2023-04-17T11:38:55.402Z,26.80
2023-04-17T11:41:24.691Z,25.90
2023-04-17T11:43:53.975Z,26.52
2023-04-17T11:46:24.449Z,26.75
2023-04-17T11:48:54.206Z,26.75
2023-04-17T11:51:23.523Z,27.23
2023-04-17T11:53:53.282Z,28.95
2023-04-17T11:56:23.974Z,30.23
2023-04-17T11:58:58.624Z,28.70
2023-04-17T12:01:29.679Z,29.77
2023-04-17T12:04:01.023Z,30.15
2023-04-17T12:06:39.979Z,29.98
2023-04-17T12:09:25.689Z,31.05
2023-04-17T12:11:54.954Z,30.67
2023-04-17T12:14:25.870Z,30.58
2023-04-17T12:16:55.816Z,29.85
2023-04-17T12:19:27.636Z,30.33
2023-04-17T12:21:57.656Z,29.38
2023-04-17T12:24:27.142Z,28.88
2023-04-17T12:26:57.350Z,29.30
2023-04-17T12:29:36.745Z,29.85
2023-04-17T12:32:12.609Z,30.33
2023-04-17T12:34:42.206Z,29.08
2023-04-17T12:37:11.521Z,30.20
2023-04-17T12:39:41.051Z,29.65
2023-04-17T12:42:10.315Z,28.95
2023-04-17T12:44:42.952Z,29.52
2023-04-17T12:47:15.312Z,28.95
2023-04-17T12:49:44.713Z,30.15
2023-04-17T12:52:14.141Z,33.75
2023-04-17T12:54:43.474Z,33.85
2023-04-17T12:57:12.812Z,31.38
2023-04-17T12:59:42.303Z,31.25
2023-04-17T13:02:11.682Z,31.45
2023-04-17T13:04:41.218Z,31.48
2023-04-17T13:07:10.762Z,31.63
2023-04-17T13:09:40.122Z,29.65
2023-04-17T13:12:09.532Z,32.80
2023-04-17T13:14:41.896Z,33.83
2023-04-17T13:17:12.032Z,32.67
2023-04-17T13:19:41.514Z,34.63
2023-04-17T13:22:10.815Z,34.08
2023-04-17T13:24:42.926Z,33.58
2023-04-17T13:27:12.845Z,34.47
2023-04-17T13:29:42.291Z,32.28
2023-04-17T13:32:12.027Z,30.75
2023-04-17T13:34:41.447Z,32.83
2023-04-17T13:37:11.268Z,31.90
2023-04-17T13:39:40.766Z,30.85
2023-04-17T13:42:10.442Z,30.08
2023-04-17T13:44:39.646Z,31.10
2023-04-17T13:47:09.173Z,30.98
2023-04-17T13:49:38.837Z,30.85
2023-04-17T13:52:08.816Z,29.80
2023-04-17T13:54:38.166Z,30.30
2023-04-17T13:57:08.092Z,29.58
2023-04-17T13:59:37.581Z,29.55
2023-04-17T14:02:07.005Z,27.83
2023-04-17T14:04:36.495Z,27.42
2023-04-17T14:07:06.929Z,31.38
2023-04-17T14:09:36.234Z,29.08
2023-04-17T14:12:05.636Z,26.60
2023-04-17T14:14:34.981Z,26.35
2023-04-17T14:17:05.163Z,24.40
2023-04-17T14:19:34.401Z,24.65
2023-04-17T14:22:03.679Z,24.60
2023-04-17T14:24:32.908Z,22.98
2023-04-17T14:27:03.427Z,26.95
2023-04-17T14:29:32.728Z,24.38
2023-04-17T14:32:02.032Z,23.17
2023-04-17T14:34:31.299Z,23.08
2023-04-17T14:37:00.815Z,22.33
2023-04-17T14:39:31.552Z,21.48
2023-04-17T14:42:02.487Z,22.45
2023-04-17T14:44:33.810Z,20.88
2023-04-17T14:47:03.853Z,22.20
2023-04-17T14:49:33.195Z,22.52
2023-04-17T14:52:02.495Z,21.63
2023-04-17T14:54:31.902Z,21.98
2023-04-17T14:57:01.272Z,21.08
2023-04-17T14:59:30.941Z,22.00
2023-04-17T15:02:00.307Z,20.17
2023-04-17T15:04:29.674Z,22.77
2023-04-17T15:06:59.021Z,21.25
2023-04-17T15:09:28.378Z,21.67
2023-04-17T15:11:57.819Z,22.27
2023-04-17T15:14:27.236Z,21.77
2023-04-17T15:16:59.380Z,22.08
2023-04-17T15:19:28.879Z,21.80
2023-04-17T15:21:58.268Z,21.83
2023-04-17T15:24:27.497Z,22.15
2023-04-17T15:26:56.790Z,22.20
2023-04-17T15:29:26.134Z,21.75
2023-04-17T15:31:55.471Z,23.77
2023-04-17T15:34:25.720Z,21.67
2023-04-17T15:36:54.981Z,22.08
2023-04-17T15:39:24.471Z,22.88
2023-04-17T15:41:54.102Z,22.15
2023-04-17T15:44:23.456Z,21.48
2023-04-17T15:46:52.934Z,21.73
2023-04-17T15:49:22.663Z,21.67
2023-04-17T15:51:52.203Z,22.60
2023-04-17T15:54:21.701Z,22.58
2023-04-17T15:56:51.187Z,22.48
2023-04-17T15:59:20.491Z,21.95
2023-04-17T16:01:49.845Z,22.60
2023-04-17T16:04:20.459Z,21.92
2023-04-17T16:06:49.842Z,21.58
2023-04-17T16:09:21.019Z,23.58
2023-04-17T16:11:50.275Z,21.95
2023-04-17T16:14:19.748Z,22.17
2023-04-17T16:16:49.065Z,20.50
2023-04-17T16:19:18.669Z,21.77
2023-04-17T16:21:48.198Z,22.48
2023-04-17T16:24:17.538Z,20.80
2023-04-17T16:26:46.806Z,21.42
2023-04-17T16:29:16.119Z,22.00
2023-04-17T16:31:45.420Z,22.40
2023-04-17T16:34:15.347Z,21.58
2023-04-17T16:36:45.799Z,21.67
2023-04-17T16:39:28.676Z,21.00
2023-04-17T16:41:58.760Z,21.42
2023-04-17T16:44:29.708Z,22.13
2023-04-17T16:49:33.989Z,21.35
2023-04-17T16:52:05.326Z,20.73
2023-04-17T16:54:38.469Z,21.25
2023-04-17T16:57:07.746Z,20.45
2023-04-17T16:59:37.104Z,20.63
2023-04-17T17:02:06.468Z,21.60
2023-04-17T17:04:35.864Z,20.15
2023-04-17T17:07:05.146Z,20.73
2023-04-17T17:09:34.466Z,20.60
2023-04-17T17:12:04.406Z,20.35
2023-04-17T17:14:33.683Z,20.30
2023-04-17T17:17:04.463Z,20.65
2023-04-17T17:19:33.769Z,20.88
2023-04-17T17:22:03.197Z,21.35
2023-04-17T17:24:32.476Z,20.40
2023-04-17T17:27:01.707Z,20.92
2023-04-17T17:29:31.029Z,20.67
2023-04-17T17:32:00.386Z,20.55
2023-04-17T17:34:30.477Z,20.67
2023-04-17T17:37:20.286Z,20.10
2023-04-17T17:39:50.214Z,20.67
2023-04-17T17:42:19.476Z,20.58
2023-04-17T17:44:48.839Z,20.67
2023-04-17T17:47:18.536Z,19.65
2023-04-17T17:52:32.492Z,20.95
2023-04-17T17:55:01.833Z,20.67
2023-04-17T17:57:41.937Z,19.52
2023-04-17T18:00:18.361Z,19.63
2023-04-17T18:05:30.179Z,19.95
2023-04-17T18:07:59.520Z,20.17
2023-04-17T18:10:28.966Z,18.70
2023-04-17T18:12:58.603Z,20.45
2023-04-17T18:15:38.652Z,20.05
2023-04-17T18:18:28.343Z,19.65
2023-04-17T18:20:57.837Z,20.52
2023-04-17T18:23:27.167Z,19.38
2023-04-17T18:26:04.541Z,20.17
2023-04-17T18:31:18.405Z,20.35
2023-04-17T18:33:47.815Z,20.52
2023-04-17T18:36:17.053Z,20.80
2023-04-17T18:38:46.340Z,20.38
2023-04-17T18:41:18.658Z,20.35
2023-04-17T18:44:08.009Z,21.30
2023-04-17T18:46:37.309Z,19.45
2023-04-17T18:49:06.659Z,21.33
2023-04-17T18:51:36.000Z,20.17
2023-04-17T18:54:07.791Z,21.48
2023-04-17T18:56:37.234Z,20.80
2023-04-17T18:59:06.544Z,20.25
2023-04-17T19:01:35.738Z,20.58
2023-04-17T19:04:05.782Z,21.00
2023-04-17T19:06:34.994Z,20.77
2023-04-17T19:09:04.549Z,19.95
2023-04-17T19:11:34.482Z,20.50
2023-04-17T19:14:03.752Z,21.10
2023-04-17T19:16:32.969Z,21.05
2023-04-17T19:19:02.250Z,21.20
2023-04-17T19:21:33.849Z,21.55
2023-04-17T19:24:03.036Z,20.75
2023-04-17T19:29:18.031Z,20.27
2023-04-17T19:31:47.300Z,21.30
2023-04-17T19:34:16.540Z,22.30
2023-04-17T19:36:45.720Z,21.77
2023-04-17T19:41:58.938Z,21.77
2023-04-17T19:44:29.256Z,22.73
2023-04-17T19:46:59.065Z,21.00
2023-04-17T19:49:28.240Z,22.02
2023-04-17T19:51:57.752Z,22.23
2023-04-17T19:54:26.907Z,22.90
2023-04-17T19:56:56.432Z,22.45
2023-04-17T19:59:25.589Z,22.67
2023-04-17T20:01:54.832Z,22.20
2023-04-17T20:04:24.281Z,22.52
2023-04-17T20:06:53.546Z,22.05
2023-04-17T20:09:22.800Z,22.75
2023-04-17T20:11:52.029Z,22.48
2023-04-17T20:14:21.731Z,20.63
2023-04-17T20:16:51.053Z,22.55
2023-04-17T20:19:21.492Z,22.30
2023-04-17T20:21:50.777Z,23.65
2023-04-17T20:24:26.579Z,22.08
2023-04-17T20:29:28.257Z,23.25
2023-04-17T20:31:57.617Z,22.50
2023-04-17T20:34:27.943Z,23.85
2023-04-17T20:36:57.198Z,24.42
2023-04-17T20:39:26.941Z,24.27
2023-04-17T20:41:56.255Z,24.48
2023-04-17T20:44:25.537Z,25.88
2023-04-17T20:46:54.836Z,25.70
2023-04-17T20:49:24.093Z,23.52
2023-04-17T20:51:53.871Z,23.88
2023-04-17T20:54:24.136Z,24.58
2023-04-17T20:56:53.592Z,23.80
2023-04-17T20:59:23.533Z,24.20
2023-04-17T21:01:53.474Z,24.75
2023-04-17T21:04:23.581Z,22.98
2023-04-17T21:06:52.883Z,24.00
2023-04-17T21:12:16.481Z,24.17
2023-04-17T21:14:45.823Z,24.88
2023-04-17T21:17:15.403Z,23.58
2023-04-17T21:19:44.734Z,23.80
2023-04-17T21:22:25.719Z,23.83
2023-04-17T21:24:55.028Z,23.27
2023-04-17T21:27:24.720Z,24.25
2023-04-17T21:29:53.984Z,23.10
2023-04-17T21:32:23.382Z,23.15
2023-04-17T21:34:52.700Z,23.48
2023-04-17T21:37:22.022Z,23.75
2023-04-17T21:39:51.551Z,23.42
2023-04-17T21:42:20.857Z,22.88
2023-04-17T21:44:50.114Z,22.60
2023-04-17T21:47:20.641Z,24.10
2023-04-17T21:49:50.437Z,23.08
2023-04-17T21:52:19.884Z,24.73
2023-04-17T21:54:50.273Z,23.27
2023-04-17T21:57:19.860Z,24.65
2023-04-17T21:59:49.571Z,24.30
2023-04-17T22:02:18.916Z,25.23
2023-04-17T22:04:48.265Z,23.38
2023-04-17T22:07:24.707Z,23.50
2023-04-17T22:09:53.987Z,24.73
2023-04-17T22:12:23.410Z,25.35
2023-04-17T22:14:52.737Z,24.33
2023-04-17T22:17:22.083Z,23.95
2023-04-17T22:19:51.396Z,24.50
2023-04-17T22:22:20.904Z,24.70
2023-04-17T22:24:50.174Z,24.38
2023-04-17T22:27:19.529Z,25.00
2023-04-17T22:29:48.862Z,25.20
2023-04-17T22:32:18.153Z,25.88
2023-04-17T22:34:51.572Z,25.35
2023-04-17T22:37:20.887Z,25.50
2023-04-17T22:39:54.247Z,26.45
2023-04-17T22:42:23.666Z,26.67
2023-04-17T22:44:53.301Z,25.98
2023-04-17T22:47:23.989Z,27.73
2023-04-17T22:49:53.637Z,27.05
2023-04-17T22:55:07.670Z,27.00
2023-04-17T22:57:37.131Z,27.55
2023-04-17T23:00:09.141Z,27.35
2023-04-17T23:02:38.921Z,26.75
2023-04-17T23:05:18.127Z,27.25
2023-04-17T23:07:52.743Z,27.67
2023-04-17T23:10:22.763Z,28.45
2023-04-17T23:12:52.156Z,26.73
2023-04-17T23:15:22.082Z,29.67
2023-04-17T23:17:51.435Z,28.83
2023-04-17T23:20:21.493Z,28.80
2023-04-17T23:22:50.826Z,29.58
2023-04-17T23:25:20.415Z,27.63
2023-04-17T23:27:49.676Z,29.77
2023-04-17T23:30:19.390Z,31.17
2023-04-17T23:32:49.149Z,30.25
2023-04-17T23:35:18.565Z,29.80
2023-04-17T23:37:49.277Z,31.63
2023-04-17T23:40:19.374Z,31.85
2023-04-17T23:42:48.660Z,30.95
2023-04-17T23:45:18.098Z,31.38
2023-04-17T23:47:47.437Z,31.30
2023-04-17T23:52:59.295Z,31.60
2023-04-17T23:55:28.997Z,31.45
2023-04-17T23:57:59.291Z,33.55
